Budd Lake, NJ

5:30 AM EDT on July 04, 2015 (GMT -0400)
Mt Olive Township | | Change Station
CLOSE
Current Station
Personal Weather Station
Location: Budd Lake, NJ
Elevation: 1013 ft
Nearby Weather Stations

Elev 1013 ft 40.87 °N, 74.75 °W | Updated 5 seconds ago

Overcast
Overcast
63.7 °F
Feels Like 63.7 °F
N
0.0
Wind Variable Wind from SSW
Gusts 0.0 mph

Today
High -- | Low -- °F
--% Chance of Precip.
Yesterday
High -- | Low -- °F
Precip. -- in
5:32 AM 8:34 PM
Waning Gibbous, 93% visible
Pressure 29.93 in
Visibility 6.0 miles
Clouds Mostly Cloudy 8000 ft
Overcast 12000 ft
Dew Point 61 °F
Humidity 91%
Rainfall 0.00 in
Snow Depth Not available.
UV 0 out of 12
Pollen 4.10 out of 12
Air Quality Not available.
Flu Activity Not available.
METAR KSMQ 040853Z AUTO 00000KT 6SM BR BKN080 OVC120 18/17 A2993 RMK AO2 SLP133 60001 T01830172 58009

More Conditions Fewer Conditions

Pressure 29.93 in
Visibility 6.0 miles
Clouds Mostly Cloudy 8000 ft
Overcast 12000 ft
Dew Point 61 °F
Humidity 91%
Rainfall 0.00 in
Snow Depth Not available.
UV 0 out of 12
Pollen 4.10 out of 12
Air Quality Not available.
Flu Activity Not available.
METAR KSMQ 040853Z AUTO 00000KT 6SM BR BKN080 OVC120 18/17 A2993 RMK AO2 SLP133 60001 T01830172 58009

More Conditions Fewer Conditions

Nowcast | as of 4:49 am EDT on July 4, 2015

Scattered light showers in parts of New Jersey may diminish or end for a while after 6 am.

×

10-Day Weather Forecast

×

Almanac

Astronomy

Jul. 04, 2015 Rise Set
Actual Time
Civil Twilight
Nautical Twilight
Astronomical Twilight
Moon
Length of Visible Light
Length of Day
Tomorrow will be .
, % of the Moon is Illuminated

Today's Extremes

State Highs State Lows

Community

WunderPhotos

Upload Photos

1,834,932 photos uploaded!

WunderBlogs® & News

Nearby

Air Quality

  Air Quality AQ Index Pollutant
Not available.

Snow Depth

Station Depth Elevation

Earthquake Activity

City Distance Mag. Time & Date
Minimum magnitude displayed is 2.5.

Coastal Water Temperatures

Place Temperature

Stations

Nearby Weather Stations

Station Location Temp. Windchill Dew Point Humidity Wind Precip. Elev Updated Type